Time;durP1;ratioP1;P1;durP2;ratioP2;P2;SDS_P1;SDS_P2;PMS_P1;PMS_P2;Temp;Humidity;BMP_temperature;BMP_pressure;BME280_temperature;BME280_humidity;BME280_pressure;Samples;Min_cycle;Max_cycle;Signal;HPM_P1;HPM_P2
2022/12/24 00:00:33;;;;;;;37.90;6.97;;;10.60;99.90;;;;;;5108104;28;20048;-73
2022/12/24 00:02:59;;;;;;;41.08;6.32;;;10.60;99.90;;;;;;5117972;27;20023;-73
2022/12/24 00:05:25;;;;;;;50.45;8.35;;;10.50;99.90;;;;;;5101931;28;20381;-74
2022/12/24 00:07:51;;;;;;;45.92;6.93;;;10.50;99.90;;;;;;5082449;28;20028;-73
2022/12/24 00:10:16;;;;;;;55.83;6.93;;;10.50;99.90;;;;;;5077363;28;20472;-72
2022/12/24 00:12:42;;;;;;;45.80;6.97;;;10.50;99.90;;;;;;5083328;28;20045;-74
2022/12/24 00:15:08;;;;;;;52.78;8.27;;;10.40;99.90;;;;;;5078917;28;20035;-75
2022/12/24 00:17:34;;;;;;;52.72;8.18;;;10.40;99.90;;;;;;5085096;28;20036;-75
2022/12/24 00:20:00;;;;;;;46.90;6.90;;;10.40;99.90;;;;;;5071643;28;20073;-74
2022/12/24 00:22:25;;;;;;;34.35;6.50;;;10.40;99.90;;;;;;5082570;28;20024;-74
2022/12/24 00:24:51;;;;;;;47.60;6.57;;;10.30;99.90;;;;;;5076464;28;20097;-73
2022/12/24 00:27:18;;;;;;;40.30;8.38;;;10.30;99.90;;;;;;5071430;28;20535;-73
2022/12/24 00:29:43;;;;;;;46.50;5.88;;;10.20;99.90;;;;;;5061474;28;20032;-74
2022/12/24 00:32:09;;;;;;;47.38;7.65;;;10.10;99.90;;;;;;5076025;28;20411;-73
2022/12/24 00:34:38;;;;;;;47.05;7.65;;;10.10;99.90;;;;;;5084881;28;20409;-73
2022/12/24 00:37:05;;;;;;;42.50;5.82;;;10.10;99.90;;;;;;5085042;28;20120;-74
2022/12/24 00:39:31;;;;;;;40.85;6.93;;;10.10;99.90;;;;;;5075911;28;20031;-74
2022/12/24 00:41:56;;;;;;;44.47;7.75;;;10.10;99.90;;;;;;5078194;28;20032;-74
2022/12/24 00:44:22;;;;;;;53.30;7.35;;;10.30;99.90;;;;;;5069466;28;20025;-74
2022/12/24 00:46:48;;;;;;;46.28;7.93;;;10.30;99.90;;;;;;5080840;28;20024;-74
2022/12/24 00:49:13;;;;;;;52.67;8.25;;;10.40;99.90;;;;;;5072637;28;20476;-73
2022/12/24 00:51:39;;;;;;;62.28;7.30;;;10.40;99.90;;;;;;5070117;28;20077;-74
2022/12/24 00:54:05;;;;;;;48.95;7.70;;;10.40;99.90;;;;;;5077597;28;20082;-74
2022/12/24 00:56:31;;;;;;;50.55;7.57;;;10.40;99.90;;;;;;5087289;28;20023;-73
2022/12/24 00:58:57;;;;;;;49.78;8.45;;;10.40;99.90;;;;;;5076610;28;20055;-74
2022/12/24 01:01:23;;;;;;;48.53;7.07;;;10.40;99.90;;;;;;5086805;28;20024;-72
2022/12/24 01:03:50;;;;;;;38.60;6.28;;;10.40;99.90;;;;;;5068388;28;20146;-73
2022/12/24 01:06:20;;;;;;;50.72;6.50;;;10.30;99.90;;;;;;5096176;27;20177;-74
2022/12/24 01:08:50;;;;;;;48.13;5.95;;;10.30;99.90;;;;;;5107255;27;20071;-75
2022/12/24 01:11:15;;;;;;;58.42;6.60;;;10.30;99.90;;;;;;5091631;28;20487;-73
2022/12/24 01:13:41;;;;;;;46.10;6.93;;;10.30;99.90;;;;;;5109242;27;20034;-75
2022/12/24 01:16:15;;;;;;;51.92;7.43;;;10.40;99.90;;;;;;5113042;27;20173;-72
2022/12/24 01:18:41;;;;;;;45.78;6.72;;;10.40;99.90;;;;;;5111655;27;20101;-73
2022/12/24 01:21:07;;;;;;;53.30;6.85;;;10.40;99.90;;;;;;5117314;27;20470;-73
2022/12/24 01:23:32;;;;;;;46.80;7.68;;;10.30;99.90;;;;;;5105090;28;20023;-74
2022/12/24 01:26:03;;;;;;;53.30;6.88;;;10.30;99.90;;;;;;5108518;27;20056;-73
2022/12/24 01:28:30;;;;;;;58.20;8.68;;;10.40;99.90;;;;;;5099334;27;20031;-74
2022/12/24 01:30:55;;;;;;;54.58;5.88;;;10.50;99.90;;;;;;5123107;27;20023;-74
2022/12/24 01:33:21;;;;;;;40.70;5.60;;;10.50;99.90;;;;;;5109727;27;20035;-73
2022/12/24 01:35:47;;;;;;;51.58;7.38;;;10.50;99.90;;;;;;5120764;27;20019;-75
2022/12/24 01:38:14;;;;;;;46.25;7.38;;;10.50;99.90;;;;;;5109650;27;20032;-73
2022/12/24 01:43:28;;;;;;;50.35;7.72;;;10.50;99.90;;;;;;5111509;27;20161;-73
2022/12/24 01:45:57;;;;;;;43.00;6.43;;;10.50;99.90;;;;;;5113615;27;20045;-73
2022/12/24 01:48:40;;;;;;;43.45;6.35;;;10.50;99.90;;;;;;5103061;27;20032;-73
2022/12/24 01:54:43;;;;;;;49.33;7.03;;;10.60;99.90;;;;;;5106715;28;20122;-72
2022/12/24 01:57:19;;;;;;;59.90;8.40;;;10.60;99.90;;;;;;5007952;28;20033;-72
2022/12/24 01:59:50;;;;;;;40.72;7.70;;;10.50;99.90;;;;;;5008733;28;20182;-73
2022/12/24 02:02:18;;;;;;;38.67;6.97;;;10.50;99.90;;;;;;5009992;28;20428;-74
2022/12/24 02:05:02;;;;;;;47.80;8.23;;;10.40;99.90;;;;;;5009202;28;20041;-74
2022/12/24 02:07:28;;;;;;;68.80;8.88;;;10.40;99.90;;;;;;4990266;28;20037;-72
2022/12/24 02:09:57;;;;;;;41.05;7.22;;;10.40;99.90;;;;;;5009332;28;20041;-74
2022/12/24 02:12:24;;;;;;;49.88;8.27;;;10.50;99.90;;;;;;5016657;28;20140;-73
2022/12/24 02:14:51;;;;;;;51.92;7.97;;;10.50;99.90;;;;;;5007752;28;20057;-74
2022/12/24 02:17:25;;;;;;;42.75;6.95;;;10.50;99.90;;;;;;4979965;28;20030;-73
2022/12/24 02:20:09;;;;;;;38.22;5.57;;;10.60;99.90;;;;;;5013297;28;20046;-73
2022/12/24 02:23:15;;;;;;;43.83;7.57;;;10.60;99.90;;;;;;5000654;28;20036;-75
2022/12/24 02:25:52;;;;;;;45.70;7.20;;;10.60;99.90;;;;;;4994466;28;20399;-74
2022/12/24 02:28:51;;;;;;;43.67;4.95;;;10.70;99.90;;;;;;5008877;28;20084;-73
2022/12/24 02:31:23;;;;;;;46.50;6.55;;;10.70;99.90;;;;;;5011260;28;20072;-73
2022/12/24 02:34:07;;;;;;;40.88;6.35;;;10.80;99.90;;;;;;5097460;28;20044;-73
2022/12/24 02:37:10;;;;;;;42.33;6.00;;;10.80;99.90;;;;;;5104675;28;20031;-73
2022/12/24 02:39:45;;;;;;;;;;;10.90;99.90;;;;;;5029016;28;20037;-74
2022/12/24 02:42:14;;;;;;;50.47;5.40;;;10.80;99.90;;;;;;5026411;28;19947;-74
2022/12/24 02:44:47;;;;;;;46.17;7.35;;;10.80;99.90;;;;;;5026812;28;20068;-74
2022/12/24 02:47:15;;;;;;;46.78;7.18;;;10.80;99.90;;;;;;5006999;28;20030;-74
2022/12/24 02:49:44;;;;;;;51.47;8.18;;;10.90;99.90;;;;;;5029955;28;20025;-74
2022/12/24 02:52:36;;;;;;;43.08;8.35;;;11.00;99.90;;;;;;5037765;28;20605;-73
2022/12/24 02:55:08;;;;;;;38.95;6.10;;;10.90;99.90;;;;;;5028492;28;20029;-73
2022/12/24 02:57:52;;;;;;;;;;;10.80;99.90;;;;;;5034429;28;20101;-73
2022/12/24 03:00:19;;;;;;;35.38;6.10;;;10.80;99.90;;;;;;5031284;28;19939;-73
2022/12/24 03:03:11;;;;;;;40.83;7.38;;;10.70;99.90;;;;;;5034871;28;20040;-74
2022/12/24 03:05:58;;;;;;;48.33;7.10;;;10.60;99.90;;;;;;5040165;28;20586;-74
2022/12/24 03:08:41;;;;;;;33.10;5.65;;;10.60;99.90;;;;;;5029661;28;20120;-74
2022/12/24 03:11:13;;;;;;;39.83;7.22;;;10.50;99.90;;;;;;5028442;28;20018;-73
2022/12/24 03:13:40;;;;;;;36.65;6.30;;;10.50;99.90;;;;;;5028648;28;20029;-73
2022/12/24 03:16:10;;;;;;;51.15;8.23;;;10.30;99.90;;;;;;5083303;28;20028;-74
2022/12/24 03:18:41;;;;;;;43.60;6.03;;;10.40;99.90;;;;;;5101004;28;20066;-73
2022/12/24 03:21:12;;;;;;;39.65;8.00;;;10.30;99.90;;;;;;5098675;28;20098;-72
2022/12/24 03:23:38;;;;;;;38.22;5.97;;;10.30;99.90;;;;;;5103520;28;20023;-73
2022/12/24 03:26:09;;;;;;;39.38;6.00;;;10.20;99.90;;;;;;5112089;28;20483;-72
2022/12/24 03:28:37;;;;;;;41.33;5.18;;;10.20;99.90;;;;;;5109679;28;20114;-73
2022/12/24 03:31:04;;;;;;;40.55;5.93;;;10.20;99.90;;;;;;5108263;28;20055;-73
2022/12/24 03:33:30;;;;;;;39.33;5.93;;;10.30;99.90;;;;;;5110428;28;20356;-73
2022/12/24 03:35:56;;;;;;;51.03;6.00;;;10.10;99.90;;;;;;5109999;28;20024;-72
2022/12/24 03:38:21;;;;;;;51.38;7.90;;;10.20;99.90;;;;;;5089655;28;20092;-73
2022/12/24 03:40:47;;;;;;;33.63;5.80;;;10.20;99.90;;;;;;5109129;28;20409;-73
2022/12/24 03:43:13;;;;;;;45.28;8.07;;;10.30;99.90;;;;;;5110126;28;20047;-74
2022/12/24 03:45:39;;;;;;;62.20;8.15;;;10.40;99.90;;;;;;5102684;28;20501;-73
2022/12/24 03:48:04;;;;;;;53.45;7.95;;;10.30;99.90;;;;;;5110692;28;20020;-73
2022/12/24 03:50:31;;;;;;;47.75;7.32;;;10.40;99.90;;;;;;5108148;28;20475;-74
2022/12/24 03:52:56;;;;;;;46.25;5.13;;;10.40;99.90;;;;;;5108429;28;20399;-73
2022/12/24 03:55:22;;;;;;;46.35;6.40;;;10.40;99.90;;;;;;5110169;28;20023;-74
2022/12/24 03:57:48;;;;;;;42.78;6.65;;;10.30;99.90;;;;;;5110244;28;20441;-73
2022/12/24 04:00:15;;;;;;;48.28;7.45;;;10.20;99.90;;;;;;5110025;28;20023;-72
2022/12/24 04:02:40;;;;;;;46.92;6.90;;;10.20;99.90;;;;;;5091412;28;20057;-73
2022/12/24 04:05:08;;;;;;;56.53;6.25;;;10.10;99.90;;;;;;5111856;28;20107;-74
2022/12/24 04:07:34;;;;;;;42.72;6.65;;;10.10;99.90;;;;;;5082820;28;20027;-73
2022/12/24 04:09:59;;;;;;;49.35;6.43;;;10.00;99.90;;;;;;5099159;28;20027;-72
2022/12/24 04:12:25;;;;;;;35.70;4.22;;;10.00;99.90;;;;;;5105700;28;20038;-73
2022/12/24 04:14:50;;;;;;;50.20;7.57;;;10.00;99.90;;;;;;5096377;28;20028;-73
2022/12/24 04:17:17;;;;;;;37.15;6.68;;;10.00;99.90;;;;;;5108805;28;20034;-74
2022/12/24 04:19:42;;;;;;;40.17;6.43;;;10.00;99.90;;;;;;5105361;28;20023;-74
2022/12/24 04:22:08;;;;;;;42.40;5.85;;;9.90;99.90;;;;;;5107835;28;20019;-73
2022/12/24 04:24:33;;;;;;;37.75;4.65;;;9.80;99.90;;;;;;5091245;28;20475;-74
2022/12/24 04:26:59;;;;;;;37.47;5.80;;;9.70;99.90;;;;;;5110775;28;20028;-74
2022/12/24 04:29:25;;;;;;;40.22;5.78;;;9.70;99.90;;;;;;5100307;28;20031;-73
2022/12/24 04:31:50;;;;;;;41.15;4.93;;;9.70;99.90;;;;;;5108190;28;20748;-74
2022/12/24 04:34:16;;;;;;;37.45;5.28;;;9.60;99.90;;;;;;5106424;28;20550;-74
2022/12/24 04:36:42;;;;;;;43.97;6.93;;;9.60;99.90;;;;;;5102499;28;20440;-74
2022/12/24 04:39:08;;;;;;;38.67;4.75;;;9.70;99.90;;;;;;5095571;28;20153;-74
2022/12/24 04:41:33;;;;;;;39.30;5.22;;;9.60;99.90;;;;;;5109224;28;20068;-73
2022/12/24 04:43:59;;;;;;;33.75;5.78;;;9.50;99.90;;;;;;5109950;28;20081;-73
2022/12/24 04:46:30;;;;;;;39.72;5.60;;;9.40;99.90;;;;;;5092043;28;20034;-73
2022/12/24 04:48:56;;;;;;;43.67;5.20;;;9.40;99.90;;;;;;5111184;28;20391;-75
2022/12/24 04:51:23;;;;;;;41.17;5.72;;;9.40;99.90;;;;;;5109328;28;20470;-74
2022/12/24 04:53:50;;;;;;;40.97;6.63;;;9.40;99.90;;;;;;5110138;28;20023;-74
2022/12/24 04:56:19;;;;;;;38.53;5.78;;;9.50;99.90;;;;;;5106054;28;20103;-73
2022/12/24 04:58:46;;;;;;;38.53;6.32;;;9.40;99.90;;;;;;5103252;28;20031;-74
2022/12/24 05:01:15;;;;;;;37.75;5.40;;;9.40;99.90;;;;;;5099913;28;20015;-73
2022/12/24 05:03:40;;;;;;;35.30;6.57;;;9.40;99.90;;;;;;5098863;28;20066;-74
2022/12/24 05:06:15;;;;;;;41.97;6.10;;;9.40;99.90;;;;;;5106458;28;20075;-75
2022/12/24 05:08:42;;;;;;;36.53;6.15;;;9.30;99.90;;;;;;5098846;28;20133;-74
2022/12/24 05:11:08;;;;;;;44.80;6.57;;;9.30;99.90;;;;;;5102462;28;20019;-71
2022/12/24 05:13:35;;;;;;;46.30;6.10;;;9.20;99.90;;;;;;5107471;28;20036;-74
2022/12/24 05:16:00;;;;;;;48.75;4.55;;;9.20;99.90;;;;;;5110292;28;20035;-73
2022/12/24 05:18:26;;;;;;;43.22;5.72;;;9.30;99.90;;;;;;5103323;28;20024;-74
2022/12/24 05:20:52;;;;;;;36.90;4.38;;;9.40;99.90;;;;;;5110176;28;20024;-75
2022/12/24 05:26:25;;;;;;;42.03;5.43;;;9.40;99.90;;;;;;5105352;28;20035;-73
2022/12/24 05:28:53;;;;;;;40.30;6.68;;;9.40;99.90;;;;;;5107410;28;20093;-73
2022/12/24 05:31:20;;;;;;;40.72;4.50;;;9.40;99.90;;;;;;5107414;28;20491;-74
2022/12/24 05:33:46;;;;;;;38.38;5.43;;;9.40;99.90;;;;;;5109415;28;20023;-74
2022/12/24 05:36:12;;;;;;;32.72;5.20;;;9.40;99.90;;;;;;5110557;28;20023;-73
2022/12/24 05:38:38;;;;;;;43.38;5.25;;;9.30;99.90;;;;;;5100896;28;20031;-73
2022/12/24 05:41:04;;;;;;;42.17;5.78;;;9.40;99.90;;;;;;5101135;28;20016;-73
2022/12/24 05:43:30;;;;;;;37.25;5.70;;;9.30;99.90;;;;;;5105243;28;20028;-74
2022/12/24 05:46:06;;;;;;;34.03;4.53;;;9.40;99.90;;;;;;5091587;28;20032;-72
2022/12/24 05:48:32;;;;;;;44.97;6.13;;;9.30;99.90;;;;;;5100023;28;20024;-74
2022/12/24 05:50:58;;;;;;;33.65;4.22;;;9.30;99.90;;;;;;5111851;27;20223;-74
2022/12/24 05:53:24;;;;;;;39.70;6.72;;;9.20;99.90;;;;;;5086231;28;20104;-74
2022/12/24 05:55:49;;;;;;;41.30;7.18;;;9.20;99.90;;;;;;5110111;27;20020;-74
2022/12/24 05:58:15;;;;;;;49.63;6.47;;;9.30;99.90;;;;;;5108860;28;20425;-73
2022/12/24 06:00:41;;;;;;;37.15;5.80;;;9.30;99.90;;;;;;5114703;28;20098;-74
2022/12/24 06:03:07;;;;;;;35.10;5.60;;;9.30;99.90;;;;;;5109634;28;20019;-73
2022/12/24 06:05:33;;;;;;;40.70;5.28;;;9.30;99.90;;;;;;5101670;28;20399;-73
2022/12/24 06:07:59;;;;;;;40.45;4.47;;;9.30;99.90;;;;;;5104436;28;20032;-74
2022/12/24 06:10:25;;;;;;;38.95;4.43;;;9.40;99.90;;;;;;5100488;28;20024;-74
2022/12/24 06:12:50;;;;;;;32.97;4.93;;;9.30;99.90;;;;;;5109601;28;20100;-74
2022/12/24 06:15:16;;;;;;;49.20;5.95;;;9.30;99.90;;;;;;5108941;28;20050;-74
2022/12/24 06:17:42;;;;;;;45.53;5.97;;;9.30;99.90;;;;;;5109179;28;20030;-74
2022/12/24 06:20:08;;;;;;;41.10;6.28;;;9.30;99.90;;;;;;5116524;28;20027;-74
2022/12/24 06:22:33;;;;;;;45.72;7.53;;;9.30;99.90;;;;;;5108642;27;20049;-74
2022/12/24 06:24:59;;;;;;;38.42;4.97;;;9.20;99.90;;;;;;5121733;27;20050;-73
2022/12/24 06:27:24;;;;;;;45.35;8.07;;;9.20;99.90;;;;;;5110845;27;20329;-74
2022/12/24 06:29:50;;;;;;;43.40;7.15;;;9.10;99.90;;;;;;5113011;28;20056;-74
2022/12/24 06:32:16;;;;;;;40.38;6.40;;;9.00;99.90;;;;;;5113037;27;20120;-74
2022/12/24 06:34:41;;;;;;;41.40;5.47;;;9.10;99.90;;;;;;5124095;27;20490;-75
2022/12/24 06:37:07;;;;;;;51.13;5.45;;;9.20;99.90;;;;;;5114050;28;20032;-74
2022/12/24 06:39:33;;;;;;;38.33;5.25;;;9.20;99.90;;;;;;5107971;27;20019;-75
2022/12/24 06:42:20;;;;;;;39.25;4.32;;;9.10;99.90;;;;;;5110146;27;20063;-78
2022/12/24 06:44:47;;;;;;;46.60;5.20;;;9.10;99.90;;;;;;5094193;27;20047;-74
2022/12/24 06:47:12;;;;;;;35.00;6.32;;;9.10;99.90;;;;;;5115358;27;20031;-74
2022/12/24 06:49:38;;;;;;;39.72;5.07;;;9.10;99.90;;;;;;5111258;28;20024;-74
2022/12/24 06:52:04;;;;;;;35.13;4.35;;;9.10;99.90;;;;;;5112381;27;20050;-73
2022/12/24 06:54:29;;;;;;;36.33;5.63;;;9.10;99.90;;;;;;5115544;27;20035;-74
2022/12/24 06:56:55;;;;;;;44.85;4.95;;;9.10;99.90;;;;;;5114641;27;20027;-74
2022/12/24 06:59:20;;;;;;;30.15;4.70;;;9.10;99.90;;;;;;5119256;27;20547;-74
2022/12/24 07:01:46;;;;;;;34.28;4.70;;;9.10;99.90;;;;;;5115572;27;20041;-74
2022/12/24 07:04:11;;;;;;;41.15;4.18;;;9.10;99.90;;;;;;5113884;28;20050;-74
2022/12/24 07:06:37;;;;;;;41.92;5.50;;;9.00;99.90;;;;;;5104001;28;20206;-74
2022/12/24 07:09:03;;;;;;;38.97;6.05;;;9.00;99.90;;;;;;5112348;28;20031;-75
2022/12/24 07:11:28;;;;;;;35.13;4.43;;;8.90;99.90;;;;;;5101037;28;20503;-74
2022/12/24 07:13:54;;;;;;;45.05;5.05;;;9.00;99.90;;;;;;5112384;28;20032;-73
2022/12/24 07:16:20;;;;;;;42.92;5.20;;;8.90;99.90;;;;;;5110713;28;20034;-72
2022/12/24 07:18:46;;;;;;;38.13;5.22;;;8.90;99.90;;;;;;5113505;28;20027;-73
2022/12/24 07:21:11;;;;;;;36.35;4.97;;;8.90;99.90;;;;;;5111776;28;20032;-74
2022/12/24 07:23:37;;;;;;;33.58;4.25;;;8.90;99.90;;;;;;5111236;28;20027;-74
2022/12/24 07:26:04;;;;;;;41.78;5.05;;;8.80;99.90;;;;;;5094863;28;20024;-74
2022/12/24 07:28:30;;;;;;;32.05;3.95;;;8.80;99.90;;;;;;5110282;28;20031;-74
2022/12/24 07:30:57;;;;;;;39.00;6.07;;;8.70;99.90;;;;;;5111867;28;20483;-73
2022/12/24 07:33:24;;;;;;;42.50;5.30;;;8.70;99.90;;;;;;5106358;28;20043;-74
2022/12/24 07:35:57;;;;;;;40.90;4.95;;;8.70;99.90;;;;;;5113054;28;20019;-74
2022/12/24 07:38:23;;;;;;;32.25;6.18;;;8.70;99.90;;;;;;5110613;28;20031;-74
2022/12/24 07:40:49;;;;;;;35.20;5.90;;;8.70;99.90;;;;;;5111573;28;20069;-73
2022/12/24 07:43:14;;;;;;;37.72;6.45;;;8.70;99.90;;;;;;5105653;28;20510;-74
2022/12/24 07:45:40;;;;;;;38.70;5.20;;;8.70;99.90;;;;;;5093032;28;20035;-72
2022/12/24 07:48:05;;;;;;;36.35;4.57;;;8.70;99.90;;;;;;5112651;28;20406;-74
2022/12/24 07:50:31;;;;;;;31.92;4.85;;;8.60;99.90;;;;;;5109725;28;20048;-74
2022/12/24 07:52:56;;;;;;;40.25;7.25;;;8.60;99.90;;;;;;5109765;28;20039;-73
2022/12/24 07:55:22;;;;;;;34.25;5.65;;;8.60;99.90;;;;;;5108810;28;20062;-73
2022/12/24 07:57:48;;;;;;;34.65;5.43;;;8.60;99.90;;;;;;5103434;28;20143;-72
2022/12/24 08:00:14;;;;;;;29.95;4.72;;;8.60;99.90;;;;;;5107501;28;20068;-73
2022/12/24 08:02:39;;;;;;;47.30;4.97;;;8.60;99.90;;;;;;5110804;28;20035;-73
2022/12/24 08:05:05;;;;;;;40.53;5.15;;;8.50;99.90;;;;;;5107043;28;20391;-72
2022/12/24 08:07:31;;;;;;;37.63;4.93;;;8.50;99.90;;;;;;5110650;28;20046;-73
2022/12/24 08:09:56;;;;;;;25.80;3.92;;;8.50;99.90;;;;;;5089923;28;20024;-72
2022/12/24 08:12:23;;;;;;;42.30;5.32;;;8.40;99.90;;;;;;5103422;28;20034;-73
2022/12/24 08:14:48;;;;;;;38.40;4.03;;;8.30;99.90;;;;;;5112546;28;20483;-73
2022/12/24 08:17:14;;;;;;;32.28;4.13;;;8.20;99.90;;;;;;5103721;28;20058;-72
2022/12/24 08:19:40;;;;;;;33.17;3.60;;;8.20;99.90;;;;;;5108897;28;20036;-74
2022/12/24 08:22:05;;;;;;;29.00;4.25;;;8.20;99.90;;;;;;5105809;28;20020;-73
2022/12/24 08:24:31;;;;;;;21.77;3.10;;;8.20;99.90;;;;;;5103377;28;20483;-73
2022/12/24 08:26:57;;;;;;;38.95;4.50;;;8.10;99.90;;;;;;5106457;28;20073;-72
2022/12/24 08:29:22;;;;;;;32.67;4.22;;;8.10;99.90;;;;;;5109739;28;20433;-74
2022/12/24 08:31:48;;;;;;;38.28;4.25;;;8.00;99.90;;;;;;5104730;28;20024;-74
2022/12/24 08:34:14;;;;;;;22.10;3.92;;;7.90;99.90;;;;;;5098923;28;20054;-74
2022/12/24 08:36:39;;;;;;;26.42;3.08;;;7.90;99.90;;;;;;5107852;28;20043;-74
2022/12/24 08:39:07;;;;;;;36.80;5.20;;;8.00;99.90;;;;;;5093321;28;20028;-73
2022/12/24 08:41:33;;;;;;;31.80;3.72;;;8.10;99.90;;;;;;5107993;28;20411;-73
2022/12/24 08:43:59;;;;;;;26.58;3.03;;;8.10;99.90;;;;;;5105142;28;20039;-72
2022/12/24 08:46:24;;;;;;;26.25;3.65;;;8.10;99.90;;;;;;5098173;28;20020;-73
2022/12/24 08:48:50;;;;;;;33.42;3.72;;;8.00;99.90;;;;;;5104192;28;20436;-73
2022/12/24 08:51:17;;;;;;;35.95;5.25;;;8.00;99.90;;;;;;5107338;28;20035;-72
2022/12/24 08:53:44;;;;;;;39.45;5.10;;;8.20;99.90;;;;;;5109980;28;20165;-72
2022/12/24 08:56:10;;;;;;;36.95;5.53;;;8.20;99.90;;;;;;5105832;28;20016;-72
2022/12/24 08:58:36;;;;;;;32.58;5.30;;;8.20;99.90;;;;;;5105031;28;20469;-74
2022/12/24 09:01:09;;;;;;;32.40;3.63;;;8.30;99.90;;;;;;5092661;28;20100;-73
2022/12/24 09:03:35;;;;;;;40.33;4.97;;;8.30;99.90;;;;;;5105368;28;20028;-73
2022/12/24 09:06:03;;;;;;;42.78;4.75;;;8.40;99.90;;;;;;5101087;28;20193;-74
2022/12/24 09:08:30;;;;;;;31.00;4.53;;;8.40;99.90;;;;;;5112861;27;20040;-75
2022/12/24 09:11:00;;;;;;;24.73;3.60;;;8.50;99.90;;;;;;5100634;28;20092;-73
2022/12/24 09:13:27;;;;;;;26.88;4.13;;;8.50;99.90;;;;;;5106517;28;20061;-73
2022/12/24 09:15:53;;;;;;;24.98;4.03;;;8.50;99.90;;;;;;5109906;28;20535;-75
2022/12/24 09:18:19;;;;;;;25.75;3.58;;;8.40;99.90;;;;;;5108131;28;20031;-72
2022/12/24 09:20:45;;;;;;;22.05;3.63;;;8.40;99.90;;;;;;5102749;28;20024;-74
2022/12/24 09:23:10;;;;;;;30.27;4.45;;;8.50;99.90;;;;;;5109849;28;20059;-74
2022/12/24 09:25:41;;;;;;;33.63;4.30;;;8.50;99.90;;;;;;5084588;28;20031;-72
2022/12/24 09:28:06;;;;;;;32.47;3.78;;;8.60;99.90;;;;;;5089814;28;20031;-76
2022/12/24 09:30:32;;;;;;;30.80;4.40;;;8.60;99.90;;;;;;5108526;28;20030;-73
2022/12/24 09:32:57;;;;;;;27.50;5.63;;;8.60;99.90;;;;;;5104859;28;20092;-72
2022/12/24 09:35:23;;;;;;;36.63;6.57;;;8.70;99.90;;;;;;5102378;28;20078;-72
2022/12/24 09:38:01;;;;;;;35.47;5.47;;;8.80;99.90;;;;;;5110337;28;20093;-72
2022/12/24 09:40:39;;;;;;;26.17;5.53;;;8.70;99.90;;;;;;5090874;28;20351;-75
2022/12/24 09:43:18;;;;;;;29.95;4.93;;;8.80;99.90;;;;;;5097246;28;20038;-74
2022/12/24 09:46:12;;;;;;;28.55;5.18;;;8.70;99.90;;;;;;5104787;28;20043;-73
2022/12/24 09:48:44;;;;;;;35.80;6.13;;;8.80;99.90;;;;;;5092252;28;20408;-74
2022/12/24 09:51:16;;;;;;;30.33;5.95;;;8.90;99.90;;;;;;5102794;28;20076;-73
2022/12/24 09:53:53;;;;;;;28.73;4.32;;;9.00;99.90;;;;;;5094293;28;20043;-73
2022/12/24 09:56:38;;;;;;;31.88;5.40;;;9.10;99.90;;;;;;5102965;27;20024;-71
2022/12/24 09:59:09;;;;;;;51.78;7.00;;;9.20;99.90;;;;;;5108321;28;20028;-73
2022/12/24 10:01:34;;;;;;;36.35;4.30;;;9.40;99.90;;;;;;5100305;28;20059;-73
2022/12/24 10:04:10;;;;;;;35.72;5.53;;;9.50;99.90;;;;;;5109897;28;20058;-73
2022/12/24 10:06:53;;;;;;;22.90;5.03;;;9.60;99.90;;;;;;5101419;28;20051;-74
2022/12/24 10:09:59;;;;;;;22.27;4.55;;;9.70;99.90;;;;;;5095607;28;20028;-72
2022/12/24 10:12:46;;;;;;;22.35;5.50;;;9.80;99.90;;;;;;5111138;28;20036;-74
2022/12/24 10:15:18;;;;;;;31.63;5.93;;;9.90;99.90;;;;;;5109101;28;20039;-73
2022/12/24 10:18:10;;;;;;;34.08;7.00;;;10.00;99.90;;;;;;5105746;28;20031;-71
2022/12/24 10:20:51;;;;;;;35.35;7.35;;;10.10;99.90;;;;;;5063168;28;20023;-73
2022/12/24 10:23:23;;;;;;;23.58;6.35;;;10.10;99.90;;;;;;5115147;28;20028;-75
2022/12/24 10:26:13;;;;;;;29.52;6.75;;;10.10;99.90;;;;;;5110361;28;20479;-74
2022/12/24 10:28:45;;;;;;;31.23;5.88;;;10.10;99.90;;;;;;5109732;28;20042;-73
2022/12/24 10:31:10;;;;;;;36.03;5.68;;;10.20;99.90;;;;;;5103798;28;20028;-73
2022/12/24 10:33:54;;;;;;;27.85;5.93;;;10.30;99.90;;;;;;5107259;28;20040;-74
2022/12/24 10:36:26;;;;;;;27.88;4.50;;;10.40;99.90;;;;;;5105354;28;20108;-74
2022/12/24 10:38:51;;;;;;;29.27;5.63;;;10.50;99.90;;;;;;5108505;28;20110;-74
2022/12/24 10:41:18;;;;;;;31.50;5.38;;;10.60;99.90;;;;;;5110268;28;20118;-74
2022/12/24 10:43:45;;;;;;;43.15;5.88;;;10.70;99.90;;;;;;5111868;28;20024;-74
2022/12/24 10:46:25;;;;;;;36.90;5.00;;;10.90;99.90;;;;;;5110591;28;20024;-74
2022/12/24 10:48:55;;;;;;;28.90;4.60;;;11.00;99.90;;;;;;5100668;28;20043;-75
2022/12/24 10:51:29;;;;;;;27.63;4.80;;;11.10;99.90;;;;;;5107282;28;20110;-74
2022/12/24 10:54:05;;;;;;;26.42;5.30;;;11.10;99.90;;;;;;5108001;28;20087;-74
2022/12/24 10:56:31;;;;;;;39.17;5.60;;;11.20;99.90;;;;;;5105692;28;20494;-74
2022/12/24 10:58:57;;;;;;;28.20;5.70;;;11.30;99.90;;;;;;5108755;28;20028;-74
2022/12/24 11:01:43;;;;;;;36.70;5.38;;;11.40;99.90;;;;;;5095528;28;20020;-73
2022/12/24 11:04:25;;;;;;;40.50;6.15;;;11.50;99.90;;;;;;5100636;28;20019;-73
2022/12/24 11:07:17;;;;;;;32.83;5.03;;;11.50;99.90;;;;;;5100723;28;20043;-73
2022/12/24 11:10:04;;;;;;;28.33;5.57;;;11.60;99.90;;;;;;5112284;27;20474;-74
2022/12/24 11:12:36;;;;;;;34.30;5.10;;;11.60;99.90;;;;;;5110127;27;20051;-74
2022/12/24 11:15:16;;;;;;;43.35;6.43;;;11.70;99.90;;;;;;5111490;28;20042;-73
2022/12/24 11:17:52;;;;;;;32.35;5.30;;;11.80;99.90;;;;;;5102332;28;20028;-73
2022/12/24 11:20:22;;;;;;;37.72;5.72;;;11.80;99.90;;;;;;5097696;28;20030;-70
2022/12/24 11:22:48;;;;;;;28.33;5.28;;;11.90;99.90;;;;;;5112790;27;20043;-73
2022/12/24 11:25:26;;;;;;;30.27;5.05;;;11.90;99.90;;;;;;5111007;28;20023;-74
2022/12/24 11:27:52;;;;;;;28.42;4.05;;;11.90;99.90;;;;;;5108733;28;20036;-73
2022/12/24 11:30:23;;;;;;;27.52;4.80;;;11.90;99.90;;;;;;5103735;28;20034;-72
2022/12/24 11:33:00;;;;;;;24.40;4.35;;;11.90;99.90;;;;;;5112033;27;20032;-74
2022/12/24 11:35:29;;;;;;;34.90;5.10;;;11.90;99.90;;;;;;5109749;27;20019;-74
2022/12/24 11:38:00;;;;;;;34.38;5.20;;;12.00;99.90;;;;;;5118214;27;20063;-73
2022/12/24 11:40:39;;;;;;;28.70;5.23;;;12.00;99.90;;;;;;5117957;27;20515;-73
2022/12/24 11:43:06;;;;;;;28.27;5.40;;;12.00;99.90;;;;;;5100241;28;20015;-73
2022/12/24 11:45:33;;;;;;;42.15;5.68;;;12.10;99.90;;;;;;5102508;28;20028;-73
2022/12/24 11:47:59;;;;;;;33.55;5.07;;;12.10;99.90;;;;;;5106676;28;20073;-71
2022/12/24 11:50:34;;;;;;;23.00;4.03;;;12.10;99.90;;;;;;5110734;28;20027;-73
2022/12/24 11:53:02;;;;;;;27.20;4.57;;;12.10;99.90;;;;;;5112214;28;20035;-73
2022/12/24 11:55:35;;;;;;;35.58;3.92;;;12.10;99.90;;;;;;5103196;28;20073;-73
2022/12/24 11:58:31;;;;;;;27.58;4.03;;;12.20;99.90;;;;;;5109559;28;20506;-74
2022/12/24 12:01:18;;;;;;;29.05;3.70;;;12.20;99.90;;;;;;5101616;28;20177;-73
2022/12/24 12:03:50;;;;;;;20.95;3.50;;;12.30;99.90;;;;;;5112341;28;20027;-74
2022/12/24 12:06:43;;;;;;;27.55;4.53;;;12.40;99.90;;;;;;5101055;28;20557;-73
2022/12/24 12:09:18;;;;;;;34.75;4.78;;;12.50;99.90;;;;;;5103073;28;20019;-73
2022/12/24 12:11:48;;;;;;;22.92;5.35;;;12.40;99.90;;;;;;5111525;28;20036;-73
2022/12/24 12:14:36;;;;;;;28.42;3.83;;;12.40;99.90;;;;;;5110615;28;20053;-72
2022/12/24 12:17:41;;;;;;;21.65;3.40;;;12.40;99.90;;;;;;5107335;28;20039;-74
2022/12/24 12:20:22;;;;;;;22.05;4.55;;;12.40;99.90;;;;;;5093874;28;20028;-73
2022/12/24 12:22:59;;;;;;;24.80;4.63;;;12.40;99.90;;;;;;5105527;28;20030;-72
2022/12/24 12:26:01;;;;;;;21.98;4.15;;;12.50;99.90;;;;;;5100027;28;20032;-70
2022/12/24 12:28:35;;;;;;;33.92;5.57;;;12.40;99.90;;;;;;5102642;28;20047;-73
2022/12/24 12:31:00;;;;;;;33.85;5.80;;;12.40;99.90;;;;;;5103859;28;20132;-73
2022/12/24 12:33:54;;;;;;;20.75;4.15;;;12.50;99.90;;;;;;5095464;28;20554;-73
2022/12/24 12:36:44;;;;;;;28.92;5.15;;;12.50;99.90;;;;;;5101429;28;20032;-74
2022/12/24 12:39:10;;;;;;;38.67;5.47;;;12.50;99.90;;;;;;5111341;28;20027;-72
2022/12/24 12:42:06;;;;;;;20.30;4.13;;;12.40;99.90;;;;;;5099305;28;20026;-72
2022/12/24 12:44:50;;;;;;;31.88;4.75;;;12.40;99.90;;;;;;5109503;28;20039;-73
2022/12/24 12:47:30;;;;;;;22.85;3.55;;;12.50;99.90;;;;;;5110463;28;20054;-75
2022/12/24 12:50:14;;;;;;;28.60;4.35;;;12.80;99.90;;;;;;5107196;28;20081;-75
2022/12/24 12:52:57;;;;;;;24.25;4.78;;;12.90;99.90;;;;;;5106429;28;20506;-73
2022/12/24 12:55:42;;;;;;;24.15;4.32;;;12.80;99.90;;;;;;5110152;27;20028;-81
2022/12/24 12:58:24;;;;;;;20.35;4.43;;;12.80;99.90;;;;;;5111896;28;20133;-78
2022/12/24 13:00:56;;;;;;;28.27;3.78;;;12.70;99.90;;;;;;5113260;27;20073;-76
2022/12/24 13:04:09;;;;;;;28.92;4.10;;;12.60;99.90;;;;;;5098670;28;20040;-73
2022/12/24 13:06:40;;;;;;;;;;;12.70;99.90;;;;;;5107168;27;20035;-76
2022/12/24 13:09:18;;;;;;;27.00;4.05;;;12.90;99.90;;;;;;5097803;28;19916;-77